sensor_id;sensor_type;location;lat;lon;timestamp;pressure;altitude;pressure_sealevel;temperature;humidity
43934;BME280;59081;42.706;23.306;2023-08-30T00:01:18;94325.53;;;20.77;72.25
43934;BME280;59081;42.706;23.306;2023-08-30T00:06:18;94297.59;;;20.47;73.91
43934;BME280;59081;42.706;23.306;2023-08-30T00:11:19;94261.66;;;20.27;75.51
43934;BME280;59081;42.706;23.306;2023-08-30T00:16:19;94252.81;;;20.23;75.26
43934;BME280;59081;42.706;23.306;2023-08-30T00:21:19;94338.00;;;21.01;74.39
43934;BME280;59081;42.706;23.306;2023-08-30T00:26:21;94226.66;;;20.45;73.33
43934;BME280;59081;42.706;23.306;2023-08-30T00:31:21;94203.31;;;19.88;74.79
43934;BME280;59081;42.706;23.306;2023-08-30T00:36:21;94183.78;;;19.53;74.86
43934;BME280;59081;42.706;23.306;2023-08-30T00:41:22;94254.69;;;19.79;75.13
43934;BME280;59081;42.706;23.306;2023-08-30T00:46:22;94301.56;;;20.28;73.90
43934;BME280;59081;42.706;23.306;2023-08-30T00:51:23;94270.66;;;19.85;74.04
43934;BME280;59081;42.706;23.306;2023-08-30T00:56:24;94253.28;;;19.62;74.48
43934;BME280;59081;42.706;23.306;2023-08-30T01:01:25;94274.25;;;19.79;73.85
43934;BME280;59081;42.706;23.306;2023-08-30T01:06:26;94251.06;;;19.49;74.54
43934;BME280;59081;42.706;23.306;2023-08-30T01:16:54;94271.97;;;19.37;74.62
43934;BME280;59081;42.706;23.306;2023-08-30T01:22:11;94281.78;;;19.49;73.78
43934;BME280;59081;42.706;23.306;2023-08-30T01:27:16;94298.50;;;19.60;73.81
43934;BME280;59081;42.706;23.306;2023-08-30T01:32:18;94255.72;;;19.35;73.10
43934;BME280;59081;42.706;23.306;2023-08-30T01:37:21;94273.75;;;19.75;72.28
43934;BME280;59081;42.706;23.306;2023-08-30T01:42:22;94232.94;;;19.67;71.66
43934;BME280;59081;42.706;23.306;2023-08-30T01:47:25;94287.53;;;20.03;72.32
43934;BME280;59081;42.706;23.306;2023-08-30T01:52:27;94277.81;;;20.10;71.51
43934;BME280;59081;42.706;23.306;2023-08-30T01:57:27;94260.34;;;20.04;71.96
43934;BME280;59081;42.706;23.306;2023-08-30T02:02:29;94257.78;;;20.06;71.84
43934;BME280;59081;42.706;23.306;2023-08-30T02:12:50;94344.03;;;20.86;70.40
43934;BME280;59081;42.706;23.306;2023-08-30T02:17:52;94238.16;;;20.11;70.37
43934;BME280;59081;42.706;23.306;2023-08-30T02:22:57;94268.16;;;20.11;71.37
43934;BME280;59081;42.706;23.306;2023-08-30T02:27:58;94334.53;;;20.40;72.27
43934;BME280;59081;42.706;23.306;2023-08-30T02:32:58;94231.66;;;19.68;72.23
43934;BME280;59081;42.706;23.306;2023-08-30T02:37:59;94215.66;;;19.27;73.33
43934;BME280;59081;42.706;23.306;2023-08-30T02:42:59;94237.22;;;19.32;73.94
43934;BME280;59081;42.706;23.306;2023-08-30T02:48:00;94281.03;;;19.54;74.62
43934;BME280;59081;42.706;23.306;2023-08-30T02:53:00;94318.19;;;19.79;74.54
43934;BME280;59081;42.706;23.306;2023-08-30T02:58:01;94257.72;;;19.40;74.71
43934;BME280;59081;42.706;23.306;2023-08-30T03:03:01;94252.63;;;19.50;74.72
43934;BME280;59081;42.706;23.306;2023-08-30T03:08:02;94257.69;;;19.46;74.16
43934;BME280;59081;42.706;23.306;2023-08-30T03:13:03;94211.78;;;19.00;74.85
43934;BME280;59081;42.706;23.306;2023-08-30T03:18:04;94208.75;;;18.93;74.20
43934;BME280;59081;42.706;23.306;2023-08-30T03:23:04;94331.06;;;19.46;72.98
43934;BME280;59081;42.706;23.306;2023-08-30T03:28:05;94190.38;;;18.56;72.45
43934;BME280;59081;42.706;23.306;2023-08-30T03:33:05;94236.56;;;19.09;71.84
43934;BME280;59081;42.706;23.306;2023-08-30T03:38:06;94180.94;;;18.70;73.09
43934;BME280;59081;42.706;23.306;2023-08-30T03:43:06;94196.66;;;18.73;71.05
43934;BME280;59081;42.706;23.306;2023-08-30T03:48:07;94181.69;;;18.82;71.02
43934;BME280;59081;42.706;23.306;2023-08-30T03:53:07;94280.16;;;19.24;71.39
43934;BME280;59081;42.706;23.306;2023-08-30T03:58:07;94213.28;;;19.01;71.62
43934;BME280;59081;42.706;23.306;2023-08-30T04:03:09;94281.56;;;19.53;72.63
43934;BME280;59081;42.706;23.306;2023-08-30T04:08:10;94272.34;;;19.58;70.46
43934;BME280;59081;42.706;23.306;2023-08-30T04:13:10;94318.72;;;20.13;69.53
43934;BME280;59081;42.706;23.306;2023-08-30T04:18:11;94221.81;;;19.61;68.11
43934;BME280;59081;42.706;23.306;2023-08-30T04:23:12;94263.66;;;20.02;66.49
43934;BME280;59081;42.706;23.306;2023-08-30T04:28:13;94320.72;;;20.48;66.44
43934;BME280;59081;42.706;23.306;2023-08-30T04:33:13;94331.53;;;20.63;65.54
43934;BME280;59081;42.706;23.306;2023-08-30T04:38:14;94328.47;;;20.61;65.21
43934;BME280;59081;42.706;23.306;2023-08-30T04:43:14;94386.91;;;20.70;65.44
43934;BME280;59081;42.706;23.306;2023-08-30T04:48:15;94378.13;;;20.60;64.89
43934;BME280;59081;42.706;23.306;2023-08-30T04:53:15;94326.06;;;20.16;63.69
43934;BME280;59081;42.706;23.306;2023-08-30T04:58:17;94369.00;;;20.54;65.34
43934;BME280;59081;42.706;23.306;2023-08-30T05:03:18;94309.94;;;19.98;66.71
43934;BME280;59081;42.706;23.306;2023-08-30T05:08:19;94316.25;;;19.10;69.17
43934;BME280;59081;42.706;23.306;2023-08-30T05:13:19;94317.88;;;19.41;68.92
43934;BME280;59081;42.706;23.306;2023-08-30T05:18:20;94293.88;;;19.22;67.90
43934;BME280;59081;42.706;23.306;2023-08-30T05:23:20;94292.41;;;19.09;69.20
43934;BME280;59081;42.706;23.306;2023-08-30T05:28:21;94360.69;;;19.72;68.49
43934;BME280;59081;42.706;23.306;2023-08-30T05:33:21;94344.59;;;19.84;67.56
43934;BME280;59081;42.706;23.306;2023-08-30T05:38:21;94395.69;;;20.20;66.84
43934;BME280;59081;42.706;23.306;2023-08-30T05:43:22;94334.78;;;20.07;65.94
43934;BME280;59081;42.706;23.306;2023-08-30T05:48:22;94284.13;;;19.86;64.79
43934;BME280;59081;42.706;23.306;2023-08-30T05:53:23;94294.59;;;20.10;64.56
43934;BME280;59081;42.706;23.306;2023-08-30T05:58:23;94330.13;;;20.50;63.79
43934;BME280;59081;42.706;23.306;2023-08-30T06:03:24;94276.63;;;20.30;63.04
43934;BME280;59081;42.706;23.306;2023-08-30T06:08:25;94302.53;;;20.30;62.14
43934;BME280;59081;42.706;23.306;2023-08-30T06:13:25;94299.63;;;20.47;61.54
43934;BME280;59081;42.706;23.306;2023-08-30T06:18:29;94339.31;;;20.75;61.15
43934;BME280;59081;42.706;23.306;2023-08-30T06:23:30;94393.38;;;21.38;60.70
43934;BME280;59081;42.706;23.306;2023-08-30T06:28:30;94285.38;;;21.18;59.51
43934;BME280;59081;42.706;23.306;2023-08-30T06:33:31;94296.03;;;21.44;55.91
43934;BME280;59081;42.706;23.306;2023-08-30T06:38:31;94368.25;;;22.26;56.49
43934;BME280;59081;42.706;23.306;2023-08-30T06:43:32;94358.22;;;22.49;55.27
43934;BME280;59081;42.706;23.306;2023-08-30T06:48:32;94418.16;;;22.33;55.93
43934;BME280;59081;42.706;23.306;2023-08-30T06:53:32;94335.31;;;21.76;57.34
43934;BME280;59081;42.706;23.306;2023-08-30T06:58:33;94402.88;;;22.47;58.05
43934;BME280;59081;42.706;23.306;2023-08-30T07:03:33;94336.13;;;22.27;57.93
43934;BME280;59081;42.706;23.306;2023-08-30T07:08:34;94314.47;;;22.09;57.58
43934;BME280;59081;42.706;23.306;2023-08-30T07:13:34;94386.53;;;22.65;58.23
43934;BME280;59081;42.706;23.306;2023-08-30T07:18:35;94301.31;;;22.49;56.87
43934;BME280;59081;42.706;23.306;2023-08-30T07:23:35;94303.06;;;22.65;55.96
43934;BME280;59081;42.706;23.306;2023-08-30T07:28:36;94313.34;;;22.76;53.89
43934;BME280;59081;42.706;23.306;2023-08-30T07:33:36;94337.38;;;23.30;53.21
43934;BME280;59081;42.706;23.306;2023-08-30T07:38:37;94406.16;;;23.55;51.73
43934;BME280;59081;42.706;23.306;2023-08-30T07:43:37;94336.81;;;23.57;53.13
43934;BME280;59081;42.706;23.306;2023-08-30T07:48:37;94302.91;;;23.89;48.86
43934;BME280;59081;42.706;23.306;2023-08-30T07:53:38;94297.91;;;24.16;48.76
43934;BME280;59081;42.706;23.306;2023-08-30T07:58:40;94334.69;;;24.52;47.34
43934;BME280;59081;42.706;23.306;2023-08-30T08:03:41;94364.34;;;24.95;46.45
43934;BME280;59081;42.706;23.306;2023-08-30T08:08:41;94370.88;;;25.39;46.12
43934;BME280;59081;42.706;23.306;2023-08-30T08:13:44;94401.84;;;25.96;44.89
43934;BME280;59081;42.706;23.306;2023-08-30T08:18:44;94366.00;;;25.76;43.99
43934;BME280;59081;42.706;23.306;2023-08-30T08:23:44;94331.41;;;25.75;44.45
43934;BME280;59081;42.706;23.306;2023-08-30T08:28:49;94379.03;;;25.86;45.64
43934;BME280;59081;42.706;23.306;2023-08-30T08:33:51;94360.59;;;26.29;43.77
43934;BME280;59081;42.706;23.306;2023-08-30T08:38:53;94317.28;;;26.26;43.01
43934;BME280;59081;42.706;23.306;2023-08-30T08:43:53;94358.00;;;26.61;41.52
43934;BME280;59081;42.706;23.306;2023-08-30T08:48:55;94422.88;;;27.58;40.50
43934;BME280;59081;42.706;23.306;2023-08-30T08:54:02;94317.34;;;27.02;38.08
43934;BME280;59081;42.706;23.306;2023-08-30T08:59:04;94356.16;;;27.32;38.33
43934;BME280;59081;42.706;23.306;2023-08-30T09:04:08;94316.69;;;27.57;38.11
43934;BME280;59081;42.706;23.306;2023-08-30T09:09:09;94307.84;;;27.46;37.61
43934;BME280;59081;42.706;23.306;2023-08-30T09:14:10;94405.56;;;28.10;38.40
43934;BME280;59081;42.706;23.306;2023-08-30T09:19:10;94331.66;;;27.90;37.68
43934;BME280;59081;42.706;23.306;2023-08-30T09:24:11;94301.47;;;27.93;37.41
43934;BME280;59081;42.706;23.306;2023-08-30T09:29:11;94311.44;;;28.01;37.42
43934;BME280;59081;42.706;23.306;2023-08-30T09:34:12;94290.72;;;27.91;37.89
43934;BME280;59081;42.706;23.306;2023-08-30T09:39:13;94397.31;;;28.44;38.21
43934;BME280;59081;42.706;23.306;2023-08-30T09:44:18;94392.38;;;28.77;37.21
43934;BME280;59081;42.706;23.306;2023-08-30T09:49:23;94296.44;;;27.84;38.60
43934;BME280;59081;42.706;23.306;2023-08-30T09:54:25;94310.69;;;28.66;36.83
43934;BME280;59081;42.706;23.306;2023-08-30T09:59:26;94296.69;;;28.93;36.27
43934;BME280;59081;42.706;23.306;2023-08-30T10:04:27;94304.44;;;28.92;35.61
43934;BME280;59081;42.706;23.306;2023-08-30T10:09:28;94296.44;;;28.98;35.84
43934;BME280;59081;42.706;23.306;2023-08-30T10:14:30;94290.00;;;29.23;35.15
43934;BME280;59081;42.706;23.306;2023-08-30T10:19:31;94362.31;;;29.31;35.50
43934;BME280;59081;42.706;23.306;2023-08-30T10:24:36;94311.34;;;28.82;37.00
43934;BME280;59081;42.706;23.306;2023-08-30T10:29:38;94357.09;;;29.45;36.72
43934;BME280;59081;42.706;23.306;2023-08-30T10:34:40;94354.25;;;29.45;36.26
43934;BME280;59081;42.706;23.306;2023-08-30T10:39:48;94282.63;;;28.77;35.94
43934;BME280;59081;42.706;23.306;2023-08-30T10:44:50;94249.81;;;28.17;36.26
43934;BME280;59081;42.706;23.306;2023-08-30T10:49:53;94268.94;;;28.66;36.15
43934;BME280;59081;42.706;23.306;2023-08-30T10:55:05;94319.31;;;29.00;36.69
43934;BME280;59081;42.706;23.306;2023-08-30T11:00:18;94319.94;;;29.33;35.61
43934;BME280;59081;42.706;23.306;2023-08-30T11:05:23;94321.53;;;29.78;34.88
43934;BME280;59081;42.706;23.306;2023-08-30T11:10:24;94315.44;;;29.82;33.41
43934;BME280;59081;42.706;23.306;2023-08-30T11:15:24;94332.44;;;29.30;32.44
43934;BME280;59081;42.706;23.306;2023-08-30T11:20:26;94322.28;;;29.96;31.81
43934;BME280;59081;42.706;23.306;2023-08-30T11:25:26;94277.03;;;29.81;28.11
43934;BME280;59081;42.706;23.306;2023-08-30T11:30:26;94303.38;;;30.79;31.53
43934;BME280;59081;42.706;23.306;2023-08-30T11:35:27;94269.19;;;30.60;27.47
43934;BME280;59081;42.706;23.306;2023-08-30T11:40:27;94234.28;;;29.52;26.33
43934;BME280;59081;42.706;23.306;2023-08-30T11:45:31;94195.97;;;30.51;25.05
43934;BME280;59081;42.706;23.306;2023-08-30T11:50:32;94259.53;;;30.46;26.38
43934;BME280;59081;42.706;23.306;2023-08-30T11:55:33;94183.41;;;30.08;26.09
43934;BME280;59081;42.706;23.306;2023-08-30T12:00:34;94226.72;;;30.35;26.06
43934;BME280;59081;42.706;23.306;2023-08-30T12:05:52;94269.66;;;29.68;26.64
43934;BME280;59081;42.706;23.306;2023-08-30T12:10:53;94186.03;;;30.33;25.25
43934;BME280;59081;42.706;23.306;2023-08-30T12:15:56;94230.75;;;30.69;24.99
43934;BME280;59081;42.706;23.306;2023-08-30T12:21:01;94172.50;;;29.87;23.85
43934;BME280;59081;42.706;23.306;2023-08-30T12:31:07;94222.34;;;31.36;23.46
43934;BME280;59081;42.706;23.306;2023-08-30T12:36:08;94246.38;;;30.87;23.49
43934;BME280;59081;42.706;23.306;2023-08-30T12:41:08;94170.31;;;29.95;23.95
43934;BME280;59081;42.706;23.306;2023-08-30T12:46:08;94137.47;;;30.48;22.67
43934;BME280;59081;42.706;23.306;2023-08-30T12:51:09;94197.19;;;31.42;21.74
43934;BME280;59081;42.706;23.306;2023-08-30T12:56:09;94170.41;;;31.45;21.57
43934;BME280;59081;42.706;23.306;2023-08-30T13:01:10;94192.75;;;32.09;21.56
43934;BME280;59081;42.706;23.306;2023-08-30T13:06:10;94167.25;;;31.41;21.98
43934;BME280;59081;42.706;23.306;2023-08-30T13:11:11;94188.66;;;31.42;22.18
43934;BME280;59081;42.706;23.306;2023-08-30T13:16:11;94197.34;;;31.35;21.95
43934;BME280;59081;42.706;23.306;2023-08-30T13:21:11;94162.03;;;31.28;20.84
43934;BME280;59081;42.706;23.306;2023-08-30T13:26:12;94177.91;;;30.56;21.82
43934;BME280;59081;42.706;23.306;2023-08-30T13:31:12;94124.44;;;30.82;20.64
43934;BME280;59081;42.706;23.306;2023-08-30T13:36:13;94181.78;;;32.25;20.66
43934;BME280;59081;42.706;23.306;2023-08-30T13:41:13;94213.34;;;32.48;20.00
43934;BME280;59081;42.706;23.306;2023-08-30T13:46:14;94207.66;;;31.98;20.57
43934;BME280;59081;42.706;23.306;2023-08-30T13:51:14;94220.28;;;31.46;21.01
43934;BME280;59081;42.706;23.306;2023-08-30T13:56:14;94072.34;;;30.13;21.40
43934;BME280;59081;42.706;23.306;2023-08-30T14:01:15;94107.72;;;29.93;21.38
43934;BME280;59081;42.706;23.306;2023-08-30T14:06:16;94180.53;;;30.81;21.67
43934;BME280;59081;42.706;23.306;2023-08-30T14:11:17;94137.13;;;30.80;21.95
43934;BME280;59081;42.706;23.306;2023-08-30T14:16:17;94104.22;;;31.06;21.61
43934;BME280;59081;42.706;23.306;2023-08-30T14:21:18;94193.78;;;31.34;22.28
43934;BME280;59081;42.706;23.306;2023-08-30T14:26:18;94227.22;;;32.32;21.34
43934;BME280;59081;42.706;23.306;2023-08-30T14:31:19;94176.31;;;32.79;20.76
43934;BME280;59081;42.706;23.306;2023-08-30T14:36:19;94168.31;;;31.65;21.03
43934;BME280;59081;42.706;23.306;2023-08-30T14:41:20;94200.03;;;31.52;21.11
43934;BME280;59081;42.706;23.306;2023-08-30T14:46:20;94265.72;;;31.08;25.93
43934;BME280;59081;42.706;23.306;2023-08-30T14:51:21;94269.97;;;31.17;29.01
43934;BME280;59081;42.706;23.306;2023-08-30T14:56:21;94238.84;;;30.36;29.70
43934;BME280;59081;42.706;23.306;2023-08-30T15:01:22;94219.09;;;29.84;30.84
43934;BME280;59081;42.706;23.306;2023-08-30T15:06:22;94221.09;;;29.47;31.63
43934;BME280;59081;42.706;23.306;2023-08-30T15:11:23;94270.38;;;29.17;31.78
43934;BME280;59081;42.706;23.306;2023-08-30T15:16:24;94260.44;;;28.66;32.91
43934;BME280;59081;42.706;23.306;2023-08-30T15:21:24;94137.69;;;26.69;34.93
43934;BME280;59081;42.706;23.306;2023-08-30T15:26:25;94247.28;;;26.70;36.36
43934;BME280;59081;42.706;23.306;2023-08-30T15:31:25;94163.28;;;25.72;37.32
43934;BME280;59081;42.706;23.306;2023-08-30T15:36:26;94259.28;;;26.18;37.49
43934;BME280;59081;42.706;23.306;2023-08-30T15:41:27;94174.44;;;25.26;37.65
43934;BME280;59081;42.706;23.306;2023-08-30T15:46:28;94212.56;;;25.71;37.24
43934;BME280;59081;42.706;23.306;2023-08-30T15:51:28;94216.72;;;25.85;37.06
43934;BME280;59081;42.706;23.306;2023-08-30T15:56:29;94324.88;;;26.69;36.74
43934;BME280;59081;42.706;23.306;2023-08-30T16:01:29;94256.34;;;26.31;36.81
43934;BME280;59081;42.706;23.306;2023-08-30T16:06:30;94215.59;;;25.88;36.27
43934;BME280;59081;42.706;23.306;2023-08-30T16:11:30;94289.22;;;26.28;35.97
43934;BME280;59081;42.706;23.306;2023-08-30T16:16:31;94309.69;;;26.06;36.27
43934;BME280;59081;42.706;23.306;2023-08-30T16:21:31;94340.38;;;26.10;36.61
43934;BME280;59081;42.706;23.306;2023-08-30T16:26:32;94299.44;;;25.80;37.49
43934;BME280;59081;42.706;23.306;2023-08-30T16:31:33;94357.25;;;25.94;38.08
43934;BME280;59081;42.706;23.306;2023-08-30T16:36:34;94286.78;;;25.30;38.72
43934;BME280;59081;42.706;23.306;2023-08-30T16:41:35;94283.00;;;25.20;39.14
43934;BME280;59081;42.706;23.306;2023-08-30T16:46:35;94304.59;;;25.17;39.08
43934;BME280;59081;42.706;23.306;2023-08-30T16:51:36;94266.38;;;24.80;39.83
43934;BME280;59081;42.706;23.306;2023-08-30T16:56:37;94341.97;;;25.18;39.89
43934;BME280;59081;42.706;23.306;2023-08-30T17:01:37;94277.41;;;24.71;39.98
43934;BME280;59081;42.706;23.306;2023-08-30T17:06:38;94349.16;;;24.98;40.14
43934;BME280;59081;42.706;23.306;2023-08-30T17:11:38;94336.03;;;24.59;40.86
43934;BME280;59081;42.706;23.306;2023-08-30T17:16:39;94367.84;;;24.67;41.01
43934;BME280;59081;42.706;23.306;2023-08-30T17:21:39;94282.59;;;23.83;41.67
43934;BME280;59081;42.706;23.306;2023-08-30T17:26:39;94399.56;;;24.47;42.28
43934;BME280;59081;42.706;23.306;2023-08-30T17:31:41;94317.09;;;23.84;42.44
43934;BME280;59081;42.706;23.306;2023-08-30T17:36:41;94329.84;;;23.85;42.47
43934;BME280;59081;42.706;23.306;2023-08-30T17:41:47;94377.38;;;24.09;42.82
43934;BME280;59081;42.706;23.306;2023-08-30T17:46:47;94381.00;;;23.83;43.75
43934;BME280;59081;42.706;23.306;2023-08-30T17:51:49;94421.22;;;24.05;44.00
43934;BME280;59081;42.706;23.306;2023-08-30T17:56:49;94327.31;;;22.95;45.03
43934;BME280;59081;42.706;23.306;2023-08-30T18:01:52;94386.31;;;23.21;45.49
43934;BME280;59081;42.706;23.306;2023-08-30T18:06:53;94457.16;;;23.72;45.16
43934;BME280;59081;42.706;23.306;2023-08-30T18:11:54;94426.31;;;23.40;45.31
43934;BME280;59081;42.706;23.306;2023-08-30T18:16:54;94495.03;;;23.71;45.23
43934;BME280;59081;42.706;23.306;2023-08-30T18:21:55;94426.06;;;22.99;46.54
43934;BME280;59081;42.706;23.306;2023-08-30T18:26:55;94392.91;;;22.65;46.37
43934;BME280;59081;42.706;23.306;2023-08-30T18:31:56;94412.97;;;22.69;46.55
43934;BME280;59081;42.706;23.306;2023-08-30T18:36:57;94424.59;;;22.79;46.51
43934;BME280;59081;42.706;23.306;2023-08-30T18:41:58;94337.78;;;22.17;46.72
43934;BME280;59081;42.706;23.306;2023-08-30T18:46:59;94388.63;;;22.45;46.40
43934;BME280;59081;42.706;23.306;2023-08-30T18:51:59;94369.31;;;22.23;46.84
43934;BME280;59081;42.706;23.306;2023-08-30T18:57:00;94364.13;;;22.14;46.65
43934;BME280;59081;42.706;23.306;2023-08-30T19:02:02;94533.66;;;23.07;47.31
43934;BME280;59081;42.706;23.306;2023-08-30T19:07:03;94373.97;;;22.02;46.99
43934;BME280;59081;42.706;23.306;2023-08-30T19:12:04;94527.41;;;22.63;48.16
43934;BME280;59081;42.706;23.306;2023-08-30T19:17:05;94391.97;;;21.69;48.15
43934;BME280;59081;42.706;23.306;2023-08-30T19:22:06;94523.66;;;22.74;47.53
43934;BME280;59081;42.706;23.306;2023-08-30T19:27:07;94448.69;;;22.18;47.40
43934;BME280;59081;42.706;23.306;2023-08-30T19:32:07;94486.69;;;22.38;47.63
43934;BME280;59081;42.706;23.306;2023-08-30T19:37:18;94586.50;;;23.08;47.24
43934;BME280;59081;42.706;23.306;2023-08-30T19:42:30;94469.03;;;22.24;47.49
43934;BME280;59081;42.706;23.306;2023-08-30T19:47:31;94503.50;;;22.56;47.35
43934;BME280;59081;42.706;23.306;2023-08-30T19:52:32;94429.81;;;22.00;47.29
43934;BME280;59081;42.706;23.306;2023-08-30T19:57:32;94392.97;;;21.71;47.73
43934;BME280;59081;42.706;23.306;2023-08-30T20:02:36;94497.25;;;22.32;47.26
43934;BME280;59081;42.706;23.306;2023-08-30T20:07:37;94595.78;;;22.84;48.17
43934;BME280;59081;42.706;23.306;2023-08-30T20:12:38;94483.50;;;21.85;48.31
43934;BME280;59081;42.706;23.306;2023-08-30T20:17:39;94565.25;;;22.38;48.65
43934;BME280;59081;42.706;23.306;2023-08-30T20:22:39;94578.97;;;22.41;48.69
43934;BME280;59081;42.706;23.306;2023-08-30T20:27:41;94608.88;;;22.57;48.98
43934;BME280;59081;42.706;23.306;2023-08-30T20:32:41;94406.03;;;21.20;49.17
43934;BME280;59081;42.706;23.306;2023-08-30T20:37:42;94603.31;;;22.33;49.73
43934;BME280;59081;42.706;23.306;2023-08-30T20:42:43;94518.41;;;21.41;50.58
43934;BME280;59081;42.706;23.306;2023-08-30T20:47:46;94495.66;;;20.90;51.56
43934;BME280;59081;42.706;23.306;2023-08-30T20:52:46;94528.59;;;21.08;51.78
43934;BME280;59081;42.706;23.306;2023-08-30T20:57:48;94532.41;;;21.11;52.00
43934;BME280;59081;42.706;23.306;2023-08-30T21:02:51;94476.25;;;20.62;52.47
43934;BME280;59081;42.706;23.306;2023-08-30T21:07:52;94519.41;;;20.37;53.77
43934;BME280;59081;42.706;23.306;2023-08-30T21:12:52;94527.38;;;20.63;53.13
43934;BME280;59081;42.706;23.306;2023-08-30T21:17:53;94572.38;;;21.06;52.92
43934;BME280;59081;42.706;23.306;2023-08-30T21:22:54;94618.44;;;21.10;53.38
43934;BME280;59081;42.706;23.306;2023-08-30T21:27:55;94657.06;;;21.17;54.09
43934;BME280;59081;42.706;23.306;2023-08-30T21:32:56;94669.31;;;21.20;53.96
43934;BME280;59081;42.706;23.306;2023-08-30T21:37:56;94634.59;;;20.93;54.10
43934;BME280;59081;42.706;23.306;2023-08-30T21:42:57;94531.72;;;20.11;53.85
43934;BME280;59081;42.706;23.306;2023-08-30T21:48:00;94670.59;;;21.13;54.47
43934;BME280;59081;42.706;23.306;2023-08-30T21:53:01;94637.28;;;20.63;54.78
43934;BME280;59081;42.706;23.306;2023-08-30T21:58:01;94679.91;;;20.92;54.66
43934;BME280;59081;42.706;23.306;2023-08-30T22:03:04;94490.72;;;19.73;54.53
43934;BME280;59081;42.706;23.306;2023-08-30T22:08:04;94462.53;;;19.65;54.04
43934;BME280;59081;42.706;23.306;2023-08-30T22:13:05;94492.13;;;20.02;54.00
43934;BME280;59081;42.706;23.306;2023-08-30T22:18:08;94442.47;;;19.67;53.70
43934;BME280;59081;42.706;23.306;2023-08-30T22:23:09;94601.63;;;20.69;54.42
43934;BME280;59081;42.706;23.306;2023-08-30T22:28:09;94574.78;;;20.49;53.46
43934;BME280;59081;42.706;23.306;2023-08-30T22:33:11;94474.97;;;19.70;53.94
43934;BME280;59081;42.706;23.306;2023-08-30T22:38:14;94579.22;;;20.17;54.63
43934;BME280;59081;42.706;23.306;2023-08-30T22:43:15;94616.34;;;20.17;55.27
43934;BME280;59081;42.706;23.306;2023-08-30T22:48:16;94493.84;;;19.30;55.35
43934;BME280;59081;42.706;23.306;2023-08-30T22:53:16;94561.34;;;19.62;55.64
43934;BME280;59081;42.706;23.306;2023-08-30T22:58:17;94510.34;;;19.34;55.26
43934;BME280;59081;42.706;23.306;2023-08-30T23:03:19;94621.94;;;20.12;55.60
43934;BME280;59081;42.706;23.306;2023-08-30T23:08:22;94554.72;;;19.76;55.03
43934;BME280;59081;42.706;23.306;2023-08-30T23:13:24;94704.47;;;20.58;55.92
43934;BME280;59081;42.706;23.306;2023-08-30T23:18:24;94570.16;;;19.94;55.54
43934;BME280;59081;42.706;23.306;2023-08-30T23:23:25;94706.38;;;20.91;54.62
43934;BME280;59081;42.706;23.306;2023-08-30T23:28:26;94588.88;;;20.16;54.82
43934;BME280;59081;42.706;23.306;2023-08-30T23:33:27;94603.16;;;20.07;55.32
43934;BME280;59081;42.706;23.306;2023-08-30T23:38:28;94547.13;;;19.60;55.27
43934;BME280;59081;42.706;23.306;2023-08-30T23:43:29;94555.25;;;19.64;55.57
43934;BME280;59081;42.706;23.306;2023-08-30T23:48:29;94602.69;;;19.92;55.80
43934;BME280;59081;42.706;23.306;2023-08-30T23:53:30;94614.16;;;19.77;56.10
43934;BME280;59081;42.706;23.306;2023-08-30T23:58:31;94515.47;;;18.96;56.30
